createdAt,value
2023-01-18T00:00:18.086Z,15.85
2023-01-18T00:02:46.826Z,17.83
2023-01-18T00:05:15.936Z,15.10
2023-01-18T00:07:43.581Z,13.95
2023-01-18T00:10:12.196Z,14.73
2023-01-18T00:12:39.858Z,14.13
2023-01-18T00:15:09.532Z,16.90
2023-01-18T00:17:47.559Z,17.38
2023-01-18T00:20:17.108Z,16.35
2023-01-18T00:22:44.725Z,15.48
2023-01-18T00:25:12.795Z,12.63
2023-01-18T00:27:41.010Z,13.40
2023-01-18T00:30:10.958Z,14.70
2023-01-18T00:32:38.813Z,16.70
2023-01-18T00:35:08.097Z,13.98
2023-01-18T00:37:37.877Z,16.25
2023-01-18T00:40:07.095Z,17.67
2023-01-18T00:42:52.221Z,16.52
2023-01-18T00:45:20.143Z,17.65
2023-01-18T00:47:47.754Z,14.57
2023-01-18T00:50:15.322Z,14.77
2023-01-18T00:52:46.211Z,14.55
2023-01-18T00:55:14.941Z,16.95
2023-01-18T00:57:43.159Z,22.10
2023-01-18T01:00:15.128Z,14.50
2023-01-18T01:02:43.398Z,17.02
2023-01-18T01:05:37.579Z,19.23
2023-01-18T01:08:07.648Z,15.77
2023-01-18T01:10:35.740Z,17.58
2023-01-18T01:13:21.126Z,17.15
2023-01-18T01:16:06.377Z,14.45
2023-01-18T01:18:51.492Z,14.88
2023-01-18T01:21:36.855Z,16.20
2023-01-18T01:24:23.578Z,15.07
2023-01-18T01:26:51.127Z,14.35
2023-01-18T01:29:18.677Z,15.00
2023-01-18T01:31:46.217Z,13.63
2023-01-18T01:34:14.160Z,16.30
2023-01-18T01:36:41.866Z,17.25
2023-01-18T01:39:11.031Z,15.35
2023-01-18T01:41:38.978Z,17.23
2023-01-18T01:44:40.070Z,13.95
2023-01-18T01:47:13.757Z,21.40
2023-01-18T01:49:44.872Z,14.18
2023-01-18T01:52:15.731Z,17.25
2023-01-18T01:54:49.428Z,16.58
2023-01-18T01:57:21.545Z,17.25
2023-01-18T01:59:53.984Z,16.20
2023-01-18T02:02:21.892Z,17.67
2023-01-18T02:04:53.626Z,16.60
2023-01-18T02:07:21.746Z,17.73
2023-01-18T02:09:51.332Z,17.40
2023-01-18T02:12:19.230Z,14.95
2023-01-18T02:14:47.488Z,17.25
2023-01-18T02:17:28.245Z,14.73
2023-01-18T02:20:21.598Z,17.27
2023-01-18T02:23:14.238Z,16.73
2023-01-18T02:26:02.870Z,15.77
2023-01-18T02:28:35.065Z,16.85
2023-01-18T02:31:11.212Z,16.73
2023-01-18T02:33:44.904Z,16.00
2023-01-18T02:36:22.149Z,17.98
2023-01-18T02:38:55.531Z,14.90
2023-01-18T02:41:51.770Z,15.80
2023-01-18T02:44:55.493Z,14.70
2023-01-18T02:47:24.350Z,18.40
2023-01-18T02:49:51.897Z,15.00
2023-01-18T02:52:40.104Z,15.82
2023-01-18T02:55:13.421Z,17.92
2023-01-18T02:57:41.327Z,22.67
2023-01-18T03:00:17.436Z,14.10
2023-01-18T03:02:47.311Z,16.65
2023-01-18T03:05:15.373Z,16.42
2023-01-18T03:07:49.916Z,15.73
2023-01-18T03:10:17.993Z,15.15
2023-01-18T03:12:53.972Z,15.18
2023-01-18T03:15:28.248Z,16.40
2023-01-18T03:17:58.215Z,15.48
2023-01-18T03:20:29.905Z,15.55
2023-01-18T03:23:20.316Z,16.73
2023-01-18T03:25:50.818Z,17.35
2023-01-18T03:28:40.531Z,19.00
2023-01-18T03:31:29.701Z,15.18
2023-01-18T03:34:02.588Z,20.75
2023-01-18T03:36:33.830Z,17.48
2023-01-18T03:39:04.606Z,18.80
2023-01-18T03:41:36.965Z,20.02
2023-01-18T03:44:08.573Z,17.88
2023-01-18T03:46:38.885Z,18.95
2023-01-18T03:49:07.536Z,14.43
2023-01-18T03:51:49.430Z,19.83
2023-01-18T03:54:21.907Z,17.50
2023-01-18T03:56:54.900Z,19.92
2023-01-18T03:59:22.532Z,16.45
2023-01-18T04:01:51.447Z,15.68
2023-01-18T04:04:19.113Z,17.45
2023-01-18T04:06:46.690Z,20.02
2023-01-18T04:09:14.437Z,16.77
2023-01-18T04:11:41.942Z,17.77
2023-01-18T04:14:09.741Z,19.98
2023-01-18T04:16:37.266Z,20.40
2023-01-18T04:19:07.339Z,18.40
2023-01-18T04:21:34.893Z,18.75
2023-01-18T04:24:02.428Z,18.42
2023-01-18T04:26:30.014Z,20.35
2023-01-18T04:28:57.541Z,19.17
2023-01-18T04:31:25.264Z,17.15
2023-01-18T04:33:52.947Z,17.17
2023-01-18T04:36:22.496Z,22.73
2023-01-18T04:38:53.799Z,18.02
2023-01-18T04:41:21.358Z,20.23
2023-01-18T04:43:48.922Z,20.23
2023-01-18T04:46:16.726Z,21.23
2023-01-18T04:48:44.353Z,16.83
2023-01-18T04:51:13.157Z,19.35
2023-01-18T04:53:42.944Z,20.83
2023-01-18T04:56:11.408Z,19.98
2023-01-18T04:58:39.586Z,18.60
2023-01-18T05:01:09.594Z,20.40
2023-01-18T05:03:38.390Z,17.35
2023-01-18T05:06:07.882Z,16.98
2023-01-18T05:08:35.906Z,19.10
2023-01-18T05:11:06.842Z,20.55
2023-01-18T05:13:34.394Z,17.10
2023-01-18T05:16:06.033Z,19.05
2023-01-18T05:18:33.858Z,17.85
2023-01-18T05:21:01.456Z,19.40
2023-01-18T05:23:29.084Z,17.15
2023-01-18T05:25:57.768Z,19.05
2023-01-18T05:28:28.371Z,19.13
2023-01-18T05:30:56.151Z,19.80
2023-01-18T05:33:24.374Z,20.35
2023-01-18T05:35:53.103Z,19.65
2023-01-18T05:38:21.528Z,19.50
2023-01-18T05:40:52.236Z,21.00
2023-01-18T05:43:20.195Z,19.73
2023-01-18T05:45:49.328Z,20.10
2023-01-18T05:48:17.029Z,22.63
2023-01-18T05:50:46.362Z,18.00
2023-01-18T05:53:16.273Z,19.70
2023-01-18T05:55:44.535Z,20.73
2023-01-18T05:58:12.523Z,17.48
2023-01-18T06:00:40.180Z,21.00
2023-01-18T06:03:10.754Z,19.42
2023-01-18T06:05:38.435Z,18.88
2023-01-18T06:08:06.705Z,22.17
2023-01-18T06:10:34.425Z,22.00
2023-01-18T06:13:01.978Z,21.58
2023-01-18T06:15:29.608Z,18.38
2023-01-18T06:17:59.279Z,18.83
2023-01-18T06:20:30.367Z,20.67
2023-01-18T06:22:58.859Z,19.40
2023-01-18T06:25:27.118Z,22.02
2023-01-18T06:27:54.747Z,23.65
2023-01-18T06:30:22.723Z,18.63
2023-01-18T06:32:51.220Z,21.10
2023-01-18T06:35:18.835Z,17.67
2023-01-18T06:37:47.781Z,19.67
2023-01-18T06:40:15.661Z,18.48
2023-01-18T06:42:43.314Z,18.13
2023-01-18T06:45:11.446Z,16.35
2023-01-18T06:47:39.148Z,18.33
2023-01-18T06:50:08.121Z,21.95
2023-01-18T06:52:35.697Z,15.07
2023-01-18T06:55:05.177Z,17.80
2023-01-18T06:57:32.805Z,18.02
2023-01-18T07:00:01.901Z,19.17
2023-01-18T07:02:29.674Z,17.65
2023-01-18T07:04:57.223Z,18.83
2023-01-18T07:07:24.878Z,17.80
2023-01-18T07:09:52.711Z,19.13
2023-01-18T07:12:21.708Z,15.48
2023-01-18T07:14:49.284Z,20.05
2023-01-18T07:17:16.918Z,20.20
2023-01-18T07:19:45.246Z,18.50
2023-01-18T07:22:13.482Z,16.27
2023-01-18T07:24:41.072Z,17.02
2023-01-18T07:27:08.616Z,17.67
2023-01-18T07:29:38.045Z,20.55
2023-01-18T07:32:06.133Z,19.98
2023-01-18T07:34:33.672Z,17.02
2023-01-18T07:37:01.476Z,23.85
2023-01-18T07:39:29.160Z,18.98
2023-01-18T07:41:56.720Z,16.90
2023-01-18T07:44:24.377Z,18.23
2023-01-18T07:48:01.650Z,16.77
2023-01-18T07:50:29.321Z,17.30
2023-01-18T07:52:57.265Z,18.77
2023-01-18T07:55:25.023Z,20.75
2023-01-18T07:57:52.546Z,16.75
2023-01-18T08:00:21.343Z,18.98
2023-01-18T08:02:51.331Z,18.85
2023-01-18T08:05:23.824Z,19.73
2023-01-18T08:07:53.513Z,17.90
2023-01-18T08:10:21.319Z,18.77
2023-01-18T08:12:48.915Z,18.85
2023-01-18T08:15:16.839Z,22.65
2023-01-18T08:17:44.387Z,22.02
2023-01-18T08:20:13.298Z,24.67
2023-01-18T08:22:42.169Z,23.33
2023-01-18T08:25:10.944Z,22.35
2023-01-18T08:27:38.855Z,22.80
2023-01-18T08:30:08.120Z,23.63
2023-01-18T08:32:35.691Z,21.70
2023-01-18T08:35:03.238Z,18.02
2023-01-18T08:37:30.819Z,19.23
2023-01-18T08:39:59.791Z,23.23
2023-01-18T08:42:27.379Z,20.25
2023-01-18T08:44:55.106Z,22.10
2023-01-18T08:47:22.858Z,19.00
2023-01-18T08:49:50.388Z,20.08
2023-01-18T08:52:17.948Z,24.08
2023-01-18T08:54:45.527Z,18.65
2023-01-18T08:57:14.355Z,20.48
2023-01-18T08:59:41.903Z,19.00
2023-01-18T09:02:10.601Z,20.35
2023-01-18T09:04:38.206Z,18.23
2023-01-18T09:07:05.712Z,15.18
2023-01-18T09:09:33.252Z,20.52
2023-01-18T09:12:00.828Z,20.63
2023-01-18T09:14:29.694Z,18.58
2023-01-18T09:16:57.663Z,17.25
2023-01-18T09:19:25.224Z,20.30
2023-01-18T09:21:52.780Z,20.73
2023-01-18T09:24:20.337Z,18.25
2023-01-18T09:26:51.670Z,22.73
2023-01-18T09:29:19.350Z,21.85
2023-01-18T09:31:49.115Z,19.70
2023-01-18T09:34:19.994Z,25.38
2023-01-18T09:36:50.628Z,21.58
2023-01-18T09:39:18.528Z,21.38
2023-01-18T09:41:52.437Z,21.55
2023-01-18T09:44:25.266Z,22.00
2023-01-18T09:46:56.178Z,21.27
2023-01-18T09:49:29.418Z,23.33
2023-01-18T09:52:05.796Z,21.77
2023-01-18T09:54:40.746Z,22.75
2023-01-18T09:57:20.775Z,20.52
2023-01-18T09:59:54.952Z,22.50
2023-01-18T10:02:26.989Z,20.50
2023-01-18T10:04:57.812Z,19.48
2023-01-18T10:07:28.861Z,17.73
2023-01-18T10:09:59.723Z,15.98
2023-01-18T10:12:34.710Z,14.15
2023-01-18T10:15:10.358Z,15.48
2023-01-18T10:17:42.044Z,18.45
2023-01-18T10:20:16.413Z,14.27
2023-01-18T10:22:49.430Z,16.90
2023-01-18T10:25:22.410Z,14.65
2023-01-18T10:28:13.756Z,17.90
2023-01-18T10:30:57.137Z,17.60
2023-01-18T10:33:28.340Z,14.35
2023-01-18T10:35:59.133Z,13.43
2023-01-18T10:38:28.577Z,15.23
2023-01-18T10:40:58.801Z,15.68
2023-01-18T10:43:28.673Z,13.43
2023-01-18T10:45:56.975Z,14.27
2023-01-18T10:48:29.034Z,15.98
2023-01-18T10:50:59.374Z,14.65
2023-01-18T10:53:32.565Z,14.27
2023-01-18T10:56:03.457Z,14.25
2023-01-18T10:58:35.749Z,13.13
2023-01-18T11:01:04.296Z,15.15
2023-01-18T11:03:39.629Z,13.10
2023-01-18T11:06:08.831Z,15.13
2023-01-18T11:08:36.977Z,14.95
2023-01-18T11:11:06.802Z,14.73
2023-01-18T11:13:42.455Z,15.77
2023-01-18T11:16:13.992Z,13.30
2023-01-18T11:19:00.985Z,13.98
2023-01-18T11:21:33.569Z,16.17
2023-01-18T11:24:07.612Z,16.13
2023-01-18T11:26:35.459Z,17.75
2023-01-18T11:29:05.780Z,16.98
2023-01-18T11:31:45.774Z,14.32
2023-01-18T11:34:23.905Z,16.55
2023-01-18T11:36:51.397Z,15.68
2023-01-18T11:39:24.689Z,13.70
2023-01-18T11:41:52.664Z,16.65
2023-01-18T11:44:24.394Z,14.32
2023-01-18T11:46:54.542Z,16.73
2023-01-18T11:49:29.925Z,12.98
2023-01-18T11:52:02.724Z,14.27
2023-01-18T11:54:36.249Z,15.07
2023-01-18T11:57:04.590Z,12.13
2023-01-18T11:59:35.439Z,15.90
2023-01-18T12:02:30.684Z,12.80
2023-01-18T12:05:17.677Z,17.85
2023-01-18T12:07:53.865Z,19.13
2023-01-18T12:10:23.564Z,19.25
2023-01-18T12:13:07.393Z,18.08
2023-01-18T12:15:53.116Z,13.75
2023-01-18T12:18:33.704Z,14.98
2023-01-18T12:21:06.298Z,15.80
2023-01-18T12:24:03.103Z,15.40
2023-01-18T12:26:48.217Z,15.13
2023-01-18T12:29:54.531Z,13.27
2023-01-18T12:32:32.223Z,12.38
2023-01-18T12:35:25.008Z,13.55
2023-01-18T12:38:06.319Z,17.63
2023-01-18T12:40:50.543Z,15.63
2023-01-18T12:43:38.631Z,14.73
2023-01-18T12:46:09.905Z,13.57
2023-01-18T12:48:46.795Z,15.15
2023-01-18T12:51:17.128Z,14.18
2023-01-18T12:53:49.972Z,17.80
2023-01-18T12:56:23.551Z,13.57
2023-01-18T12:58:55.363Z,14.88
2023-01-18T13:01:25.799Z,11.90
2023-01-18T13:03:59.105Z,12.85
2023-01-18T13:06:28.553Z,14.05
2023-01-18T13:09:01.739Z,14.15
2023-01-18T13:11:33.479Z,14.13
2023-01-18T13:14:10.249Z,13.75
2023-01-18T13:16:45.225Z,12.20
2023-01-18T13:19:18.040Z,13.45
2023-01-18T13:21:59.995Z,14.48
2023-01-18T13:24:40.769Z,11.45
2023-01-18T13:27:10.021Z,10.23
2023-01-18T13:29:38.367Z,12.45
2023-01-18T13:32:27.292Z,13.05
2023-01-18T13:35:18.494Z,11.52
2023-01-18T13:37:50.092Z,10.75
2023-01-18T13:40:35.373Z,12.45
2023-01-18T13:43:03.511Z,12.45
2023-01-18T13:45:31.803Z,13.38
2023-01-18T13:48:03.401Z,12.48
2023-01-18T13:50:48.097Z,15.93
2023-01-18T13:53:31.702Z,12.30
2023-01-18T13:56:29.399Z,12.75
2023-01-18T13:59:00.386Z,13.25
2023-01-18T14:01:33.411Z,10.95
2023-01-18T14:04:09.397Z,14.57
2023-01-18T14:06:38.968Z,10.30
2023-01-18T14:09:08.429Z,11.18
2023-01-18T14:11:41.956Z,14.25
2023-01-18T14:14:26.184Z,11.55
2023-01-18T14:16:59.787Z,13.43
2023-01-18T14:19:29.426Z,13.75
2023-01-18T14:22:26.637Z,9.68
2023-01-18T14:25:11.429Z,13.60
2023-01-18T14:27:44.768Z,12.38
2023-01-18T14:30:18.863Z,10.77
2023-01-18T14:32:54.711Z,12.57
2023-01-18T14:35:25.748Z,13.85
2023-01-18T14:37:54.112Z,15.10
2023-01-18T14:40:23.871Z,14.07
2023-01-18T14:42:56.136Z,13.27
2023-01-18T14:45:28.888Z,12.07
2023-01-18T14:47:58.498Z,10.32
2023-01-18T14:50:27.558Z,13.98
2023-01-18T14:52:55.320Z,11.50
2023-01-18T14:55:31.374Z,13.05
2023-01-18T14:58:10.751Z,13.45
2023-01-18T15:00:44.402Z,11.38
2023-01-18T15:03:21.644Z,12.75
2023-01-18T15:05:56.821Z,15.13
2023-01-18T15:08:27.987Z,12.52
2023-01-18T15:10:55.685Z,12.65
2023-01-18T15:13:27.491Z,13.40
2023-01-18T15:15:58.235Z,16.35
2023-01-18T15:18:29.583Z,12.60
2023-01-18T15:20:59.163Z,13.95
2023-01-18T15:23:28.130Z,11.88
2023-01-18T15:25:56.855Z,12.80
2023-01-18T15:28:31.521Z,13.15
2023-01-18T15:30:59.118Z,12.68
2023-01-18T15:33:27.954Z,13.68
2023-01-18T15:35:58.771Z,11.93
2023-01-18T15:38:26.330Z,12.02
2023-01-18T15:40:58.414Z,14.90
2023-01-18T15:43:33.718Z,12.52
2023-01-18T15:46:02.115Z,11.07
2023-01-18T15:48:40.477Z,11.85
2023-01-18T15:51:10.957Z,17.67
2023-01-18T15:53:45.694Z,12.88
2023-01-18T15:56:17.772Z,14.07
2023-01-18T15:58:49.863Z,10.43
2023-01-18T16:01:20.523Z,15.32
2023-01-18T16:03:59.933Z,11.18
2023-01-18T16:06:35.869Z,15.15
2023-01-18T16:09:11.556Z,13.18
2023-01-18T16:11:46.339Z,14.60
2023-01-18T16:14:24.466Z,12.63
2023-01-18T16:16:53.836Z,14.93
2023-01-18T16:19:28.323Z,18.27
2023-01-18T16:21:59.565Z,16.02
2023-01-18T16:24:36.966Z,15.27
2023-01-18T16:27:12.802Z,14.65
2023-01-18T16:29:44.839Z,14.32
2023-01-18T16:32:28.905Z,13.73
2023-01-18T16:34:58.760Z,14.70
2023-01-18T16:37:26.322Z,15.02
2023-01-18T16:39:55.356Z,15.50
2023-01-18T16:42:29.669Z,18.55
2023-01-18T16:45:02.352Z,15.88
2023-01-18T16:47:29.873Z,14.77
2023-01-18T16:49:59.151Z,15.48
2023-01-18T16:52:27.372Z,15.68
2023-01-18T16:54:55.142Z,15.38
2023-01-18T16:57:24.592Z,18.05
2023-01-18T16:59:52.201Z,16.45
2023-01-18T17:02:21.983Z,16.15
2023-01-18T17:04:50.065Z,16.90
2023-01-18T17:07:17.637Z,14.68
2023-01-18T17:09:49.020Z,16.77
2023-01-18T17:12:17.123Z,20.55
2023-01-18T17:14:44.613Z,16.30
2023-01-18T17:17:12.222Z,15.32
2023-01-18T17:19:43.876Z,17.40
2023-01-18T17:22:11.544Z,16.05
2023-01-18T17:24:39.321Z,15.93
2023-01-18T17:27:09.941Z,22.55
2023-01-18T17:29:37.534Z,14.50
2023-01-18T17:32:06.308Z,13.88
2023-01-18T17:34:33.831Z,14.90
2023-01-18T17:37:03.157Z,16.20
2023-01-18T17:39:42.600Z,16.23
2023-01-18T17:42:22.880Z,15.20
2023-01-18T17:45:02.684Z,14.85
2023-01-18T17:47:31.004Z,17.77
2023-01-18T17:49:58.543Z,18.25
2023-01-18T17:52:28.251Z,15.27
2023-01-18T17:54:55.810Z,15.48
2023-01-18T17:57:23.440Z,17.77
2023-01-18T17:59:55.549Z,17.35
2023-01-18T18:02:23.966Z,15.32
2023-01-18T18:04:52.059Z,16.98
2023-01-18T18:07:19.778Z,16.45
2023-01-18T18:09:48.726Z,17.35
2023-01-18T18:12:16.358Z,17.58
2023-01-18T18:14:43.941Z,16.00
2023-01-18T18:17:11.482Z,16.50
2023-01-18T18:19:39.053Z,15.35
2023-01-18T18:22:06.992Z,16.52
2023-01-18T18:24:34.544Z,15.43
2023-01-18T18:27:03.541Z,17.73
2023-01-18T18:29:31.112Z,16.83
2023-01-18T18:31:58.739Z,13.93
2023-01-18T18:34:26.635Z,18.75
2023-01-18T18:36:54.189Z,18.95
2023-01-18T18:39:21.998Z,16.77
2023-01-18T18:41:49.723Z,16.38
2023-01-18T18:44:18.637Z,15.63
2023-01-18T18:46:46.320Z,15.93
2023-01-18T18:49:14.055Z,16.42
2023-01-18T18:51:41.618Z,18.50
2023-01-18T18:54:11.398Z,17.13
2023-01-18T18:56:39.113Z,20.13
2023-01-18T18:59:06.622Z,16.65
2023-01-18T19:01:35.623Z,17.38
2023-01-18T19:04:04.392Z,18.05
2023-01-18T19:06:32.018Z,18.95
2023-01-18T19:08:59.644Z,18.58
2023-01-18T19:11:27.510Z,16.92
2023-01-18T19:13:56.602Z,16.88
2023-01-18T19:16:24.427Z,16.15
2023-01-18T19:18:53.571Z,17.90
2023-01-18T19:21:21.152Z,16.92
2023-01-18T19:23:49.028Z,16.25
2023-01-18T19:26:18.166Z,18.67
2023-01-18T19:28:47.113Z,19.67
2023-01-18T19:31:14.722Z,20.13
2023-01-18T19:33:42.384Z,17.00
2023-01-18T19:36:16.503Z,18.30
2023-01-18T19:38:49.200Z,17.67
2023-01-18T19:41:20.220Z,20.05
2023-01-18T19:43:49.743Z,15.02
2023-01-18T19:46:18.009Z,15.90
2023-01-18T19:48:45.556Z,16.48
2023-01-18T19:51:22.419Z,18.67
2023-01-18T19:53:51.102Z,18.95
2023-01-18T19:56:18.692Z,18.58
2023-01-18T19:58:46.396Z,17.40
2023-01-18T20:01:26.688Z,16.13
2023-01-18T20:04:01.982Z,17.75
2023-01-18T20:06:30.943Z,15.98
2023-01-18T20:08:58.978Z,18.45
2023-01-18T20:11:26.629Z,16.63
2023-01-18T20:13:54.321Z,15.88
2023-01-18T20:16:22.031Z,14.95
2023-01-18T20:18:50.042Z,15.00
2023-01-18T20:21:19.073Z,15.50
2023-01-18T20:23:48.477Z,15.50
2023-01-18T20:26:24.779Z,13.15
2023-01-18T20:29:02.809Z,14.68
2023-01-18T20:31:30.457Z,18.08
2023-01-18T20:33:58.026Z,16.50
2023-01-18T20:36:25.542Z,15.02
2023-01-18T20:38:54.749Z,16.13
2023-01-18T20:41:22.350Z,16.45
2023-01-18T20:43:49.984Z,19.33
2023-01-18T20:46:17.746Z,15.35
2023-01-18T20:48:45.552Z,14.80
2023-01-18T20:51:13.181Z,16.75
2023-01-18T20:53:40.723Z,15.93
2023-01-18T20:56:23.437Z,18.95
2023-01-18T20:58:55.653Z,13.68
2023-01-18T21:01:23.642Z,15.02
2023-01-18T21:03:55.016Z,15.02
2023-01-18T21:06:22.716Z,16.63
2023-01-18T21:08:52.345Z,14.40
2023-01-18T21:11:22.874Z,14.98
2023-01-18T21:13:50.763Z,15.23
2023-01-18T21:16:18.558Z,13.63
2023-01-18T21:18:46.183Z,13.73
2023-01-18T21:21:13.995Z,14.98
2023-01-18T21:23:41.693Z,14.75
2023-01-18T21:26:11.818Z,12.40
2023-01-18T21:28:41.119Z,14.43
2023-01-18T21:31:09.149Z,17.13
2023-01-18T21:33:36.868Z,14.00
2023-01-18T21:36:05.835Z,18.10
2023-01-18T21:38:34.193Z,13.27
2023-01-18T21:41:22.083Z,13.55
2023-01-18T21:44:11.360Z,16.98
2023-01-18T21:46:39.339Z,13.38
2023-01-18T21:49:07.613Z,14.68
2023-01-18T21:51:52.784Z,14.80
2023-01-18T21:54:22.145Z,13.60
2023-01-18T21:56:51.959Z,13.50
2023-01-18T21:59:20.901Z,14.05
2023-01-18T22:01:48.610Z,17.25
2023-01-18T22:04:34.576Z,17.75
2023-01-18T22:07:04.206Z,14.70
2023-01-18T22:09:32.994Z,13.20
2023-01-18T22:12:01.105Z,15.75
2023-01-18T22:14:30.084Z,15.27
2023-01-18T22:16:57.983Z,15.00
2023-01-18T22:19:25.734Z,15.82
2023-01-18T22:21:53.348Z,13.50
2023-01-18T22:24:21.080Z,15.50
2023-01-18T22:26:48.681Z,12.30
2023-01-18T22:29:16.405Z,13.80
2023-01-18T22:31:45.341Z,15.25
2023-01-18T22:34:19.173Z,14.65
2023-01-18T22:36:47.092Z,12.43
2023-01-18T22:39:15.006Z,14.18
2023-01-18T22:41:43.244Z,14.18
2023-01-18T22:44:12.542Z,18.63
2023-01-18T22:46:40.127Z,15.98
2023-01-18T22:49:09.037Z,14.63
2023-01-18T22:51:36.843Z,13.77
2023-01-18T22:54:04.609Z,12.38
2023-01-18T22:56:32.202Z,15.98
2023-01-18T22:59:00.415Z,17.27
2023-01-18T23:01:30.807Z,14.70
2023-01-18T23:04:00.372Z,16.15
2023-01-18T23:06:42.174Z,14.02
2023-01-18T23:09:10.700Z,16.98
2023-01-18T23:11:39.103Z,18.02
2023-01-18T23:14:24.487Z,16.05
2023-01-18T23:17:10.178Z,15.82
2023-01-18T23:19:37.950Z,17.92
2023-01-18T23:22:07.741Z,15.80
2023-01-18T23:24:36.505Z,20.60
2023-01-18T23:27:05.191Z,16.88
2023-01-18T23:29:32.828Z,14.38
2023-01-18T23:32:00.872Z,18.55
2023-01-18T23:34:28.523Z,17.63
2023-01-18T23:36:56.130Z,16.77
2023-01-18T23:39:42.574Z,19.20
2023-01-18T23:42:27.561Z,16.98
2023-01-18T23:45:12.626Z,16.80
2023-01-18T23:47:58.375Z,15.77
2023-01-18T23:50:44.070Z,16.80
2023-01-18T23:53:30.907Z,13.20
2023-01-18T23:56:00.121Z,19.42
2023-01-18T23:58:28.183Z,17.95
